Time;durP1;ratioP1;P1;durP2;ratioP2;P2;SDS_P1;SDS_P2;PMS_P1;PMS_P2;Temp;Humidity;BMP_temperature;BMP_pressure;BME280_temperature;BME280_humidity;BME280_pressure;Samples;Min_cycle;Max_cycle;Signal;HPM_P1;HPM_P2
2022/03/11 00:02:22;;;;;;;16.20;8.75;;;0.90;1.00;;;0.77;45.82;102578.66;4954738;29;20168;-70
2022/03/11 00:04:52;;;;;;;13.75;9.68;;;0.90;1.00;;;0.67;46.00;102581.06;4954573;29;20745;-69
2022/03/11 00:07:21;;;;;;;17.08;10.32;;;0.80;1.00;;;0.78;45.16;102577.69;4954784;29;20653;-69
2022/03/11 00:09:53;;;;;;;13.40;9.07;;;0.80;1.00;;;0.72;45.98;102568.31;4954838;28;20222;-69
2022/03/11 00:12:24;;;;;;;12.43;9.45;;;0.80;1.00;;;0.70;45.43;102569.34;4954668;29;20279;-68
2022/03/11 00:14:54;;;;;;;14.10;8.55;;;0.80;1.00;;;0.62;45.99;102576.97;4955423;28;20656;-68
2022/03/11 00:17:23;;;;;;;17.23;10.18;;;0.80;1.00;;;0.68;45.57;102581.88;4958911;29;20639;-68
2022/03/11 00:19:52;;;;;;;17.52;10.30;;;0.80;1.00;;;0.59;45.65;102579.81;4950404;29;20755;-67
2022/03/11 00:22:20;;;;;;;11.52;8.38;;;0.70;1.00;;;0.61;45.97;102572.59;4958173;29;20211;-68
2022/03/11 00:24:49;;;;;;;15.25;9.82;;;0.70;1.00;;;0.59;45.94;102578.00;4958430;29;20201;-68
2022/03/11 00:27:19;;;;;;;15.63;9.30;;;0.70;1.00;;;0.52;46.05;102573.16;4958206;29;20195;-67
2022/03/11 00:29:48;;;;;;;14.85;9.73;;;0.70;1.00;;;0.52;46.04;102574.03;4958008;28;20208;-68
2022/03/11 00:32:17;;;;;;;12.35;8.95;;;0.60;1.00;;;0.46;45.99;102578.88;4957915;29;20260;-70
2022/03/11 00:34:46;;;;;;;13.82;9.55;;;0.60;1.00;;;0.49;46.19;102581.34;4958227;29;20208;-68
2022/03/11 00:37:15;;;;;;;16.17;9.65;;;0.60;1.00;;;0.35;46.08;102577.72;4958328;29;20192;-68
2022/03/11 00:39:44;;;;;;;13.90;10.05;;;0.60;1.00;;;0.33;46.00;102571.66;4959569;28;20254;-68
2022/03/11 00:42:13;;;;;;;16.10;11.05;;;0.50;1.00;;;0.37;46.03;102573.19;4958382;29;20188;-68
2022/03/11 00:44:43;;;;;;;15.30;9.25;;;0.50;1.00;;;0.31;46.36;102570.91;4958232;29;20196;-68
2022/03/11 00:47:12;;;;;;;18.65;10.07;;;0.50;1.00;;;0.43;46.04;102569.28;4957837;29;20605;-67
2022/03/11 00:49:41;;;;;;;15.68;9.48;;;0.50;1.00;;;0.35;45.89;102572.41;4957796;28;20211;-68
2022/03/11 00:52:10;;;;;;;14.38;9.98;;;0.50;1.00;;;0.34;46.26;102576.00;4958056;29;20185;-68
2022/03/11 00:54:39;;;;;;;13.65;10.38;;;0.50;1.00;;;0.23;46.47;102564.34;4957953;29;20181;-68
2022/03/11 00:57:08;;;;;;;17.73;10.65;;;0.50;1.00;;;0.20;46.67;102564.50;4958472;29;20211;-68
2022/03/11 00:59:37;;;;;;;11.77;8.63;;;0.40;1.00;;;0.20;46.54;102567.16;4957927;28;20255;-68
2022/03/11 01:02:07;;;;;;;17.65;10.40;;;0.40;1.00;;;0.26;45.86;102553.47;4958179;29;20204;-69
2022/03/11 01:04:36;;;;;;;16.63;10.90;;;0.40;1.00;;;0.24;46.30;102561.56;4957316;29;20235;-68
2022/03/11 01:07:05;;;;;;;15.02;10.50;;;0.40;1.00;;;0.19;46.22;102557.50;4957067;29;20223;-68
2022/03/11 01:09:34;;;;;;;16.98;8.57;;;0.30;1.00;;;0.07;46.05;102551.09;4957742;28;20216;-68
2022/03/11 01:12:03;;;;;;;12.65;10.40;;;0.30;1.00;;;0.16;46.84;102555.88;4957269;29;20695;-68
2022/03/11 01:14:32;;;;;;;18.92;9.80;;;0.30;1.00;;;0.14;46.01;102556.94;4957384;29;20242;-68
2022/03/11 01:17:01;;;;;;;13.30;8.77;;;0.30;1.00;;;0.09;46.18;102570.53;4957303;29;20263;-69
2022/03/11 01:19:31;;;;;;;15.35;11.40;;;0.30;1.00;;;0.12;46.55;102562.34;4957891;28;20216;-68
2022/03/11 01:22:02;;;;;;;15.55;8.90;;;0.30;1.00;;;0.10;46.39;102561.56;4957404;29;20188;-68
2022/03/11 01:24:31;;;;;;;14.57;10.10;;;0.30;1.00;;;0.22;45.80;102551.97;4957621;29;20192;-68
2022/03/11 01:27:01;;;;;;;18.52;9.50;;;0.30;1.00;;;0.12;46.34;102559.66;4956707;28;20267;-68
2022/03/11 01:29:30;;;;;;;23.38;10.88;;;0.30;1.00;;;0.15;46.27;102554.16;4957597;28;20239;-69
2022/03/11 01:31:59;;;;;;;16.90;9.55;;;0.30;1.00;;;0.11;46.06;102551.78;4957365;29;20219;-68
2022/03/11 01:34:28;;;;;;;17.45;8.90;;;0.30;1.00;;;0.13;45.62;102550.75;4957318;29;20200;-68
2022/03/11 01:36:58;;;;;;;17.85;11.27;;;0.30;1.00;;;0.16;45.86;102550.53;4957384;29;20235;-68
2022/03/11 01:39:27;;;;;;;20.02;9.40;;;0.30;1.00;;;0.08;46.24;102557.28;4957334;28;20294;-68
2022/03/11 01:41:56;;;;;;;20.80;10.90;;;0.20;1.00;;;0.06;45.99;102554.72;4956791;29;20188;-68
2022/03/11 01:44:26;;;;;;;15.55;9.95;;;0.20;1.00;;;0.10;45.89;102545.59;4956647;29;20179;-69
2022/03/11 01:46:57;;;;;;;14.90;10.32;;;0.20;1.00;;;0.08;45.48;102550.16;4956961;29;20235;-68
2022/03/11 01:49:26;;;;;;;22.60;10.35;;;0.20;1.00;;;0.03;46.14;102554.91;4956532;28;20204;-67
2022/03/11 01:51:55;;;;;;;17.55;9.68;;;0.20;1.00;;;-0.04;45.93;102553.56;4956886;29;20172;-67
2022/03/11 01:54:25;;;;;;;15.82;10.45;;;0.10;1.00;;;-0.06;46.13;102545.69;4956512;29;20176;-69
2022/03/11 01:56:54;;;;;;;18.73;11.48;;;0.10;1.00;;;-0.09;45.81;102532.56;4956460;29;20192;-69
2022/03/11 01:59:23;;;;;;;16.23;10.52;;;0.10;1.00;;;-0.13;46.43;102540.81;4956278;28;20267;-68
2022/03/11 02:01:52;;;;;;;15.27;10.70;;;0.10;1.00;;;-0.13;46.41;102543.47;4956398;29;20184;-68
2022/03/11 02:04:21;;;;;;;16.92;12.07;;;0.00;1.00;;;-0.12;46.75;102531.91;4956335;29;20275;-68
2022/03/11 02:06:50;;;;;;;15.90;10.20;;;0.00;1.00;;;-0.18;46.23;102542.91;4956606;29;20251;-68
2022/03/11 02:09:19;;;;;;;18.45;10.98;;;0.00;1.00;;;-0.16;46.35;102538.34;4956363;28;20216;-68
2022/03/11 02:11:49;;;;;;;18.52;9.80;;;0.00;1.00;;;-0.22;46.73;102544.03;4956180;29;20199;-67
2022/03/11 02:14:18;;;;;;;17.80;10.48;;;0.00;1.00;;;-0.30;46.27;102541.84;4956472;29;20202;-69
2022/03/11 02:16:47;;;;;;;13.48;9.93;;;-0.10;1.00;;;-0.36;46.64;102541.34;4956389;29;20920;-68
2022/03/11 02:19:16;;;;;;;16.52;11.65;;;-0.10;1.00;;;-0.21;46.15;102535.13;4956238;28;20748;-69
2022/03/11 02:21:48;;;;;;;13.88;10.00;;;-0.10;1.00;;;-0.31;47.01;102534.81;4939150;29;20287;-68
2022/03/11 02:24:19;;;;;;;13.63;9.82;;;-0.10;1.00;;;-0.43;47.05;102533.72;4956179;29;20189;-68
2022/03/11 02:26:48;;;;;;;17.40;10.00;;;-0.20;1.00;;;-0.47;47.52;102534.88;4938728;29;20230;-68
2022/03/11 02:29:17;;;;;;;17.77;10.35;;;-0.30;1.00;;;-0.40;47.36;102529.19;4955984;28;20200;-69
2022/03/11 02:31:46;;;;;;;18.20;11.50;;;-0.30;1.00;;;-0.46;47.07;102536.59;4956310;29;20544;-68
2022/03/11 02:34:16;;;;;;;16.85;10.05;;;-0.30;1.00;;;-0.44;46.89;102528.53;4956809;29;20208;-68
2022/03/11 02:39:22;;;;;;;16.92;10.55;;;-0.30;1.00;;;-0.46;47.16;102535.72;4956082;28;20234;-68
2022/03/11 02:41:51;;;;;;;15.18;10.43;;;-0.30;1.00;;;-0.50;47.07;102523.56;4956371;29;20231;-67
2022/03/11 02:44:20;;;;;;;15.00;10.70;;;-0.30;1.00;;;-0.44;47.26;102523.22;4955637;29;20272;-70
2022/03/11 02:46:49;;;;;;;21.40;9.65;;;-0.30;1.00;;;-0.44;46.78;102518.72;4955462;29;20204;-68
2022/03/11 02:49:18;;;;;;;21.30;11.02;;;-0.30;1.00;;;-0.45;47.03;102518.81;4955726;28;20279;-68
2022/03/11 02:51:47;;;;;;;16.85;11.80;;;-0.30;1.00;;;-0.55;47.18;102515.00;4955551;29;20196;-68
2022/03/11 02:54:16;;;;;;;19.17;10.65;;;-0.40;1.00;;;-0.54;47.29;102517.59;4955600;29;20177;-68
2022/03/11 02:56:46;;;;;;;15.10;9.98;;;-0.40;1.00;;;-0.58;47.03;102521.34;4955309;29;20263;-68
2022/03/11 02:59:15;;;;;;;17.83;10.65;;;-0.40;1.00;;;-0.64;48.11;102527.03;4955585;28;20599;-68
2022/03/11 03:01:44;;;;;;;18.10;11.60;;;-0.50;1.00;;;-0.76;48.11;102521.56;4955669;29;20211;-69
2022/03/11 03:04:13;;;;;;;13.23;11.48;;;-0.50;1.10;;;-0.86;47.68;102515.94;4937901;29;20200;-68
2022/03/11 03:06:42;;;;;;;14.35;8.95;;;-0.60;1.10;;;-0.94;48.59;102518.19;4955379;29;20197;-68
2022/03/11 03:09:11;;;;;;;16.98;11.10;;;-0.70;1.40;;;-0.91;48.52;102515.34;4955100;28;20243;-67
2022/03/11 03:11:40;;;;;;;19.20;11.60;;;-0.70;1.80;;;-0.94;49.38;102512.88;4955026;29;20188;-68
2022/03/11 03:14:10;;;;;;;19.92;10.07;;;-0.70;1.80;;;-1.01;49.18;102512.38;4955033;29;20245;-68
2022/03/11 03:16:39;;;;;;;18.77;11.10;;;-0.80;1.80;;;-1.00;48.76;102518.53;4955206;29;20172;-68
2022/03/11 03:19:08;;;;;;;14.48;10.55;;;-0.80;1.80;;;-0.97;48.44;102513.06;4955284;28;20211;-69
2022/03/11 03:21:47;;;;;;;17.55;10.15;;;-0.80;2.00;;;-0.99;48.60;102513.16;4955043;29;20207;-67
2022/03/11 03:24:16;;;;;;;13.38;10.23;;;-0.80;1.70;;;-1.02;49.01;102507.16;4954933;29;20195;-70
2022/03/11 03:26:45;;;;;;;14.23;9.52;;;-0.80;2.40;;;-1.12;49.47;102505.97;4955177;29;20243;-68
2022/03/11 03:29:15;;;;;;;18.25;10.82;;;-0.90;2.10;;;-1.08;49.52;102510.16;4937879;29;20216;-68
2022/03/11 03:31:44;;;;;;;18.95;10.77;;;-0.90;2.10;;;-1.11;49.26;102511.19;4954906;29;20184;-67
2022/03/11 03:34:13;;;;;;;12.00;8.25;;;-0.90;2.10;;;-1.14;49.31;102506.06;4955419;29;20270;-69
2022/03/11 03:36:42;;;;;;;18.45;10.70;;;-0.90;2.20;;;-1.15;49.73;102506.13;4954968;29;20190;-67
2022/03/11 03:39:11;;;;;;;18.65;11.48;;;-0.90;2.30;;;-1.27;49.77;102514.81;4954019;28;20326;-68
2022/03/11 03:41:40;;;;;;;18.27;12.35;;;-1.00;2.40;;;-1.29;49.66;102508.72;4955341;29;20263;-68
2022/03/11 03:44:09;;;;;;;15.05;10.35;;;-1.00;2.40;;;-1.25;49.56;102515.56;4955252;29;20188;-68
2022/03/11 03:46:39;;;;;;;17.88;10.88;;;-1.00;2.50;;;-1.23;49.15;102511.03;4955482;29;20200;-68
2022/03/11 03:49:11;;;;;;;22.40;11.20;;;-1.00;2.50;;;-1.28;49.15;102513.09;4954928;28;20226;-66
2022/03/11 03:51:40;;;;;;;19.63;10.95;;;-1.10;2.50;;;-1.29;49.76;102512.22;4955094;29;20275;-68
2022/03/11 03:54:10;;;;;;;19.02;10.43;;;-1.10;2.50;;;-1.29;49.18;102516.69;4955227;29;20177;-68
2022/03/11 03:56:40;;;;;;;15.05;10.40;;;-1.10;2.60;;;-1.35;50.30;102512.56;4955267;29;20207;-69
2022/03/11 03:59:11;;;;;;;19.85;11.60;;;-1.20;2.70;;;-1.47;50.09;102516.78;4957387;28;20624;-68
2022/03/11 04:01:44;;;;;;;17.73;11.55;;;-1.20;2.90;;;-1.34;49.90;102509.84;4956971;29;20260;-68
2022/03/11 04:04:14;;;;;;;16.90;11.73;;;-1.20;2.90;;;-1.44;49.82;102516.59;4956457;29;20263;-69
2022/03/11 04:06:43;;;;;;;18.65;9.60;;;-1.20;2.80;;;-1.42;49.41;102516.53;4955768;29;20736;-68
2022/03/11 04:09:12;;;;;;;17.05;10.38;;;-1.20;2.80;;;-1.37;49.46;102510.03;4956334;28;20259;-69
2022/03/11 04:11:41;;;;;;;19.67;13.25;;;-1.20;2.90;;;-1.48;50.18;102507.09;4955163;29;20270;-67
2022/03/11 04:14:11;;;;;;;17.33;10.65;;;-1.20;3.00;;;-1.46;49.85;102510.53;4954727;29;20625;-68
2022/03/11 04:16:41;;;;;;;13.68;9.48;;;-1.30;3.00;;;-1.49;49.97;102500.06;4954735;29;20338;-67
2022/03/11 04:19:10;;;;;;;18.88;11.57;;;-1.30;3.00;;;-1.49;50.20;102497.41;4954316;28;20235;-68
2022/03/11 04:21:39;;;;;;;22.90;12.30;;;-1.30;3.10;;;-1.43;49.98;102504.19;4954819;29;20180;-68
2022/03/11 04:24:13;;;;;;;17.77;9.55;;;-1.30;3.00;;;-1.45;49.60;102504.25;4954776;29;20180;-68
2022/03/11 04:26:43;;;;;;;17.02;10.63;;;-1.30;2.90;;;-1.48;50.55;102499.13;4954496;29;20576;-68
2022/03/11 04:29:13;;;;;;;16.77;10.65;;;-1.30;3.00;;;-1.50;50.18;102508.16;4954583;28;20295;-67
2022/03/11 04:31:43;;;;;;;16.90;10.27;;;-1.30;3.00;;;-1.49;49.88;102492.09;4954772;29;20181;-68
2022/03/11 04:34:12;;;;;;;22.02;11.25;;;-1.30;3.00;;;-1.52;50.10;102505.56;4954379;29;20231;-69
2022/03/11 04:36:41;;;;;;;17.98;11.23;;;-1.30;3.00;;;-1.58;50.03;102499.72;4954194;29;20542;-68
2022/03/11 04:39:10;;;;;;;20.17;12.10;;;-1.40;3.00;;;-1.56;50.44;102490.75;4954240;28;20270;-68
2022/03/11 04:41:39;;;;;;;15.65;11.45;;;-1.40;3.10;;;-1.53;49.71;102492.38;4954176;29;20188;-68
2022/03/11 04:44:08;;;;;;;16.50;10.88;;;-1.40;3.10;;;-1.53;50.11;102503.84;4954029;29;20537;-68
2022/03/11 04:46:37;;;;;;;18.17;10.45;;;-1.40;3.00;;;-1.55;49.84;102489.78;4954233;29;20184;-69
2022/03/11 04:49:07;;;;;;;18.67;11.30;;;-1.40;2.80;;;-1.62;50.84;102501.69;4954639;28;20295;-69
2022/03/11 04:51:38;;;;;;;14.07;9.32;;;-1.40;3.10;;;-1.60;50.50;102496.31;4954794;29;20185;-68
2022/03/11 04:54:07;;;;;;;12.60;10.25;;;-1.40;2.90;;;-1.69;50.84;102487.03;4954819;29;20535;-68
2022/03/11 04:56:37;;;;;;;12.13;8.90;;;-1.50;3.00;;;-1.72;50.47;102492.53;4954160;29;20177;-68
2022/03/11 04:59:06;;;;;;;20.65;11.45;;;-1.50;3.20;;;-1.77;50.74;102491.91;4954684;28;20267;-67
2022/03/11 05:01:35;;;;;;;16.67;11.70;;;-1.50;3.20;;;-1.71;50.69;102493.38;4954530;28;20172;-68
2022/03/11 05:04:06;;;;;;;18.42;12.38;;;-1.50;3.20;;;-1.76;50.49;102496.28;4957570;29;20192;-67
2022/03/11 05:06:34;;;;;;;22.13;11.23;;;-1.50;3.10;;;-1.78;50.70;102492.84;4957383;29;20224;-68
2022/03/11 05:09:03;;;;;;;18.23;10.68;;;-1.50;3.30;;;-1.68;50.04;102498.53;4957843;28;20204;-68
2022/03/11 05:11:32;;;;;;;15.02;11.25;;;-1.50;3.10;;;-1.76;50.73;102491.00;4956767;29;20184;-68
2022/03/11 05:14:01;;;;;;;18.77;10.80;;;-1.50;3.30;;;-1.89;51.26;102492.59;4957743;29;20196;-68
2022/03/11 05:16:30;;;;;;;16.65;11.13;;;-1.60;3.40;;;-1.82;50.77;102496.63;4957995;29;20185;-67
2022/03/11 05:18:59;;;;;;;25.08;10.57;;;-1.60;3.30;;;-1.72;50.33;102491.66;4940007;29;20219;-68
2022/03/11 05:21:29;;;;;;;16.33;10.75;;;-1.60;3.20;;;-1.69;50.23;102497.66;4957152;29;20200;-69
2022/03/11 05:23:58;;;;;;;21.00;11.20;;;-1.50;3.30;;;-1.69;49.95;102500.31;4957134;29;20278;-69
2022/03/11 05:26:28;;;;;;;20.08;11.10;;;-1.50;3.10;;;-1.72;50.26;102503.16;4957046;29;20200;-68
2022/03/11 05:29:00;;;;;;;17.90;10.90;;;-1.50;3.10;;;-1.73;50.32;102501.44;4957085;28;20593;-68
2022/03/11 05:31:30;;;;;;;19.63;11.13;;;-1.60;3.10;;;-1.82;50.13;102502.78;4957147;29;20268;-68
2022/03/11 05:33:58;;;;;;;16.30;12.05;;;-1.60;3.10;;;-1.71;50.27;102504.00;4957054;29;20188;-68
2022/03/11 05:36:29;;;;;;;14.48;11.20;;;-1.60;3.20;;;-1.77;50.04;102510.50;4957125;29;20181;-69
2022/03/11 05:38:58;;;;;;;17.98;11.50;;;-1.60;3.10;;;-1.77;50.07;102505.19;4956961;28;20661;-67
2022/03/11 05:41:27;;;;;;;13.63;10.00;;;-1.60;2.90;;;-1.78;50.41;102509.63;4957000;29;20268;-69
2022/03/11 05:43:56;;;;;;;18.35;10.98;;;-1.60;3.10;;;-1.70;49.97;102500.41;4956722;29;20192;-68
2022/03/11 05:46:25;;;;;;;18.70;11.93;;;-1.60;3.00;;;-1.67;49.41;102501.09;4957138;29;20184;-68
2022/03/11 05:48:54;;;;;;;18.88;10.38;;;-1.50;2.90;;;-1.72;49.99;102503.16;4956830;28;20640;-67
2022/03/11 05:51:23;;;;;;;17.73;11.55;;;-1.50;3.00;;;-1.67;50.22;102506.41;4957150;29;20597;-69
2022/03/11 05:53:53;;;;;;;18.23;11.80;;;-1.50;3.00;;;-1.71;49.92;102504.88;4956835;29;20247;-67
2022/03/11 05:56:22;;;;;;;21.77;12.63;;;-1.60;2.90;;;-1.63;49.62;102513.25;4957158;29;20526;-70
2022/03/11 05:58:51;;;;;;;19.05;10.77;;;-1.50;2.80;;;-1.59;49.87;102516.59;4957242;28;20203;-67
2022/03/11 06:01:21;;;;;;;18.95;11.23;;;-1.50;2.60;;;-1.61;49.38;102511.38;4957414;29;20196;-68
2022/03/11 06:03:50;;;;;;;21.02;11.68;;;-1.50;2.50;;;-1.61;49.87;102516.69;4957608;29;20190;-68
2022/03/11 06:06:19;;;;;;;16.52;11.13;;;-1.50;2.50;;;-1.56;49.60;102519.97;4957085;29;20188;-69
2022/03/11 06:08:48;;;;;;;18.00;12.20;;;-1.50;2.60;;;-1.56;49.41;102519.97;4939616;29;20262;-68
2022/03/11 06:11:22;;;;;;;21.13;11.85;;;-1.40;2.60;;;-1.56;49.85;102521.75;4957208;29;20176;-69
2022/03/11 06:13:51;;;;;;;16.52;10.63;;;-1.40;2.50;;;-1.52;49.03;102525.94;4958514;28;20172;-70
2022/03/11 06:16:20;;;;;;;20.23;12.60;;;-1.40;2.40;;;-1.50;49.33;102519.59;4958117;29;20220;-68
2022/03/11 06:18:49;;;;;;;20.73;13.40;;;-1.40;2.60;;;-1.43;49.52;102526.28;4956652;28;20586;-68
2022/03/11 06:21:18;;;;;;;17.98;12.63;;;-1.30;3.40;;;-1.38;48.85;102534.00;4956153;29;20602;-68
2022/03/11 06:23:47;;;;;;;25.63;13.07;;;-1.30;2.30;;;-1.40;49.16;102522.59;4956310;29;20592;-69
2022/03/11 06:26:16;;;;;;;21.25;11.90;;;-1.20;2.20;;;-1.39;48.67;102517.19;4956039;29;20172;-68
2022/03/11 06:28:47;;;;;;;21.67;11.90;;;-1.20;2.30;;;-1.33;49.31;102530.16;4956200;28;20771;-68
2022/03/11 06:31:16;;;;;;;20.48;12.55;;;-1.20;2.40;;;-1.28;49.14;102534.34;4955906;29;20195;-69
2022/03/11 06:33:45;;;;;;;16.48;10.40;;;-1.20;2.10;;;-1.24;48.89;102531.41;4956159;29;20199;-68
2022/03/11 06:36:13;;;;;;;21.23;11.23;;;-1.20;2.10;;;-1.21;48.52;102525.09;4955825;29;20251;-68
2022/03/11 06:38:43;;;;;;;18.92;11.13;;;-1.10;1.90;;;-1.17;48.30;102526.63;4995027;23;21017;-73
2022/03/11 06:41:14;;;;;;;22.05;13.00;;;-1.10;1.90;;;-1.11;48.38;102520.94;4957793;29;20180;-72
2022/03/11 06:43:46;;;;;;;17.38;11.05;;;-1.00;1.80;;;-1.09;48.32;102527.91;4956101;29;20180;-72
2022/03/11 06:46:20;;;;;;;19.30;12.73;;;-1.00;1.60;;;-1.07;47.99;102534.00;4956275;29;20176;-73
2022/03/11 06:48:50;;;;;;;18.88;12.90;;;-1.00;1.50;;;-1.02;48.35;102525.75;4967791;28;20250;-73
2022/03/11 06:51:23;;;;;;;15.55;11.52;;;-1.00;1.50;;;-1.03;48.04;102535.53;4975347;28;20175;-71
2022/03/11 06:53:53;;;;;;;17.55;13.23;;;-0.90;1.50;;;-0.87;47.14;102530.16;4975314;28;20187;-71
2022/03/11 06:56:22;;;;;;;22.92;11.77;;;-0.80;1.30;;;-0.77;47.91;102528.69;4975084;28;20662;-71
2022/03/11 06:58:52;;;;;;;21.15;13.35;;;-0.70;1.40;;;-0.71;47.83;102531.00;4975372;28;20176;-71
2022/03/11 07:01:21;;;;;;;19.48;11.80;;;-0.70;1.10;;;-0.60;47.17;102528.56;4978359;28;20179;-71
2022/03/11 07:03:50;;;;;;;19.00;11.15;;;-0.60;1.00;;;-0.51;46.91;102527.16;4968252;28;20179;-71
2022/03/11 07:06:21;;;;;;;14.57;12.00;;;-0.50;1.00;;;-0.61;46.96;102529.50;4987730;28;20203;-72
2022/03/11 07:08:51;;;;;;;16.20;11.70;;;-0.50;1.00;;;-0.55;46.70;102533.63;4988734;28;20200;-72
2022/03/11 07:11:20;;;;;;;22.95;13.95;;;-0.50;1.00;;;-0.40;46.02;102529.19;4985997;28;20183;-72
2022/03/11 07:13:49;;;;;;;21.48;13.60;;;-0.40;1.00;;;-0.48;46.39;102530.50;4988861;28;20252;-72
2022/03/11 07:16:19;;;;;;;20.38;13.20;;;-0.40;1.00;;;-0.34;46.22;102535.00;4989204;28;20191;-70
2022/03/11 07:18:49;;;;;;;13.82;10.75;;;-0.30;1.00;;;-0.23;45.53;102534.34;4988323;28;20654;-72
2022/03/11 07:21:17;;;;;;;25.08;13.15;;;-0.20;1.00;;;-0.25;45.65;102534.44;4987942;28;20195;-72
2022/03/11 07:23:51;;;;;;;22.42;14.13;;;-0.20;1.00;;;-0.19;45.32;102527.88;4987465;28;20455;-74
2022/03/11 07:26:21;;;;;;;23.98;13.38;;;-0.10;1.00;;;-0.09;45.43;102535.22;4985354;28;20171;-73
2022/03/11 07:28:50;;;;;;;23.02;11.77;;;0.00;1.00;;;0.10;44.68;102534.94;4985513;28;20207;-72
2022/03/11 07:31:20;;;;;;;21.98;13.05;;;0.10;1.00;;;0.18;44.88;102535.34;4984538;28;20184;-73
2022/03/11 07:33:50;;;;;;;16.70;12.25;;;0.20;1.00;;;0.21;44.23;102539.59;4986393;28;20180;-71
2022/03/11 07:36:19;;;;;;;18.42;13.65;;;0.20;1.00;;;0.28;44.18;102539.13;4988388;28;20179;-71
2022/03/11 07:38:48;;;;;;;22.75;13.18;;;0.30;1.00;;;0.34;44.17;102532.53;4987259;28;20195;-70
2022/03/11 07:41:18;;;;;;;20.98;12.77;;;0.40;1.00;;;0.35;43.81;102535.13;4988091;28;20176;-72
2022/03/11 07:43:48;;;;;;;22.70;13.57;;;0.40;1.00;;;0.39;43.32;102533.97;4987951;28;20176;-71
2022/03/11 07:46:39;;;;;;;20.95;12.35;;;0.50;1.00;;;0.39;43.30;102536.63;4988708;28;20251;-71
2022/03/11 07:49:09;;;;;;;19.98;12.48;;;0.40;1.00;;;0.60;43.29;102538.91;4986629;28;20215;-71
2022/03/11 07:51:38;;;;;;;22.55;12.95;;;0.60;1.00;;;0.64;42.90;102540.41;4988581;28;20175;-72
2022/03/11 07:54:07;;;;;;;23.30;11.40;;;0.60;1.00;;;0.76;43.00;102534.31;4986101;28;20178;-71
2022/03/11 07:56:38;;;;;;;17.42;11.82;;;0.70;1.00;;;0.83;42.85;102535.59;4985783;28;20198;-71
2022/03/11 07:59:07;;;;;;;19.98;12.00;;;0.80;1.00;;;0.97;42.68;102535.56;4984297;28;20644;-71
2022/03/11 08:01:36;;;;;;;21.27;13.18;;;0.90;1.00;;;0.79;42.61;102532.28;4985893;28;20175;-72
2022/03/11 08:04:07;;;;;;;17.80;11.32;;;0.80;1.00;;;0.92;42.56;102529.66;4983336;28;20183;-70
2022/03/11 08:06:37;;;;;;;16.38;12.30;;;0.90;1.00;;;0.90;42.02;102530.75;4980222;28;20179;-72
2022/03/11 08:09:06;;;;;;;19.02;12.20;;;0.90;1.00;;;1.01;41.95;102531.75;4985160;28;20244;-72
2022/03/11 08:11:36;;;;;;;15.00;10.75;;;1.00;1.00;;;1.08;41.36;102530.38;4980850;28;20577;-70
2022/03/11 08:14:05;;;;;;;21.27;12.13;;;1.10;1.00;;;1.21;41.31;102528.59;4983156;28;20183;-72
2022/03/11 08:16:34;;;;;;;19.35;12.45;;;1.20;1.00;;;1.40;40.99;102530.94;4983245;28;20195;-73
2022/03/11 08:19:06;;;;;;;24.45;13.43;;;1.30;1.00;;;1.42;40.67;102528.13;4977495;28;20227;-71
2022/03/11 08:21:35;;;;;;;18.45;12.88;;;1.40;1.00;;;1.60;40.48;102516.19;4976437;28;20176;-72
2022/03/11 08:24:05;;;;;;;18.45;12.80;;;1.50;1.00;;;1.59;40.37;102525.19;4976033;28;20451;-72
2022/03/11 08:26:34;;;;;;;18.10;12.13;;;1.60;1.00;;;1.66;40.08;102518.47;4973696;28;20178;-71
2022/03/11 08:29:04;;;;;;;20.02;12.57;;;1.60;1.00;;;1.74;39.86;102514.28;4972954;28;20219;-72
2022/03/11 08:31:47;;;;;;;14.73;10.82;;;1.70;1.00;;;1.75;39.94;102517.81;4972894;28;20198;-71
2022/03/11 08:34:18;;;;;;;21.45;13.45;;;1.70;1.00;;;1.91;39.54;102515.81;4972999;28;20179;-72
2022/03/11 08:37:07;;;;;;;18.90;11.70;;;1.90;1.00;;;2.06;39.22;102511.22;4976884;28;20215;-71
2022/03/11 08:39:37;;;;;;;19.92;12.85;;;2.00;1.00;;;2.10;38.92;102523.38;4976498;28;20311;-75
2022/03/11 08:42:07;;;;;;;20.77;12.57;;;2.10;1.00;;;2.04;39.29;102505.97;4976489;28;20199;-72
2022/03/11 08:44:36;;;;;;;21.15;12.98;;;2.00;1.00;;;2.40;38.46;102513.19;4977897;28;20299;-73
2022/03/11 08:47:05;;;;;;;21.95;12.25;;;2.20;1.00;;;2.52;38.53;102514.13;4977533;28;20222;-73
2022/03/11 08:49:36;;;;;;;19.70;13.15;;;2.40;1.00;;;2.67;38.20;102520.16;4977177;28;20211;-73
2022/03/11 08:52:05;;;;;;;21.73;12.82;;;2.50;1.00;;;2.63;37.51;102509.72;4978923;28;20175;-72
2022/03/11 08:54:38;;;;;;;15.05;10.63;;;2.60;1.00;;;2.66;37.39;102505.97;4979124;28;20175;-73
2022/03/11 08:57:07;;;;;;;19.33;11.57;;;2.60;1.00;;;2.70;37.28;102519.97;4979861;28;20176;-72
2022/03/11 08:59:39;;;;;;;16.65;10.75;;;2.60;1.00;;;2.66;36.98;102511.31;4979030;28;20254;-75
2022/03/11 09:02:09;;;;;;;20.75;12.82;;;2.70;1.00;;;2.75;37.06;102517.81;4979671;28;20218;-72
2022/03/11 09:04:40;;;;;;;18.52;11.68;;;2.70;1.00;;;3.08;36.84;102519.81;4980237;28;20246;-74
2022/03/11 09:07:14;;;;;;;23.17;13.75;;;2.90;1.00;;;3.17;36.24;102514.63;4986166;28;20175;-72
2022/03/11 09:09:43;;;;;;;18.10;11.95;;;3.10;1.00;;;3.01;36.37;102520.25;4994334;28;20231;-72
2022/03/11 09:12:12;;;;;;;15.60;10.25;;;3.00;1.00;;;3.15;36.02;102519.22;4994846;28;20239;-73
2022/03/11 09:14:41;;;;;;;19.30;13.00;;;3.10;1.00;;;3.20;36.25;102511.72;4994246;28;20179;-72
2022/03/11 09:17:10;;;;;;;22.05;12.50;;;3.20;1.00;;;3.31;36.09;102510.91;4995493;28;20219;-72
2022/03/11 09:19:42;;;;;;;17.05;11.65;;;3.20;1.00;;;3.30;35.99;102506.53;4993674;28;20219;-72
2022/03/11 09:22:31;;;;;;;18.15;13.15;;;3.20;1.00;;;3.30;35.73;102506.53;4993514;28;20199;-73
2022/03/11 09:25:01;;;;;;;18.67;12.25;;;3.20;1.00;;;3.44;35.54;102509.00;4993452;28;20196;-72
2022/03/11 09:27:30;;;;;;;18.08;11.55;;;3.30;1.00;;;3.47;35.21;102506.13;4986905;28;20183;-73
2022/03/11 09:29:59;;;;;;;17.67;10.75;;;3.40;1.00;;;3.64;35.05;102519.03;4976800;28;20213;-73
2022/03/11 09:32:29;;;;;;;13.40;10.88;;;3.50;1.00;;;3.70;34.80;102510.53;4959004;28;20192;-71
2022/03/11 09:35:00;;;;;;;17.35;11.02;;;3.60;1.00;;;3.75;34.57;102504.84;4976481;28;20246;-72
2022/03/11 09:37:29;;;;;;;16.50;12.00;;;3.70;1.00;;;3.75;34.65;102504.84;4977602;28;20300;-73
2022/03/11 09:39:59;;;;;;;18.75;12.48;;;3.70;1.00;;;3.76;34.76;102496.69;4976008;28;20211;-73
2022/03/11 09:42:28;;;;;;;19.75;12.50;;;3.70;1.00;;;3.79;34.40;102499.13;4975533;28;20203;-73
2022/03/11 09:44:58;;;;;;;18.02;12.27;;;3.70;1.00;;;3.79;34.90;102493.75;4976165;28;20179;-73
2022/03/11 09:47:27;;;;;;;18.90;11.57;;;3.70;1.00;;;4.01;34.72;102489.41;4975060;28;20196;-73
2022/03/11 09:49:57;;;;;;;17.60;11.75;;;3.80;1.00;;;4.03;34.23;102503.53;4975823;28;20682;-71
2022/03/11 09:52:28;;;;;;;17.02;11.25;;;4.00;1.00;;;4.06;34.54;102492.59;4958273;28;20222;-73
2022/03/11 09:54:57;;;;;;;21.42;13.43;;;4.00;1.00;;;4.29;34.45;102491.59;4975670;28;20174;-74
2022/03/11 09:57:27;;;;;;;18.13;12.02;;;4.10;1.00;;;4.55;33.71;102484.97;4974887;28;20215;-73
2022/03/11 09:59:57;;;;;;;18.45;12.75;;;4.30;1.00;;;4.64;33.13;102489.63;4957461;28;20251;-73
2022/03/11 10:02:26;;;;;;;19.25;13.10;;;4.50;1.00;;;4.60;32.19;102488.13;4975225;28;20187;-73
2022/03/11 10:04:57;;;;;;;17.10;11.52;;;4.50;1.00;;;4.72;31.80;102489.84;4975344;28;20266;-73
2022/03/11 10:08:00;;;;;;;22.75;14.02;;;4.60;1.00;;;4.93;31.86;102489.91;4974746;28;20639;-73
2022/03/11 10:10:30;;;;;;;14.82;11.20;;;4.80;1.00;;;4.95;31.43;102484.41;4974757;28;20241;-72
2022/03/11 10:13:08;;;;;;;18.85;13.15;;;4.80;1.00;;;5.02;31.37;102488.28;4974801;28;20183;-72
2022/03/11 10:15:40;;;;;;;16.23;10.90;;;4.90;1.00;;;5.07;31.22;102483.38;4974691;28;20203;-73
2022/03/11 10:18:16;;;;;;;14.45;11.10;;;5.00;1.00;;;5.05;31.38;102482.66;4975062;28;20179;-72
2022/03/11 10:20:45;;;;;;;27.35;10.98;;;4.90;1.00;;;5.11;29.67;102476.78;4974972;28;20243;-73
2022/03/11 10:23:16;;;;;;;18.05;9.90;;;5.00;1.00;;;5.29;28.94;102480.59;4975684;28;20167;-72
2022/03/11 10:25:53;;;;;;;15.48;9.63;;;5.10;1.00;;;5.15;29.04;102471.03;4975922;28;20203;-73
2022/03/11 10:28:22;;;;;;;12.10;9.75;;;5.10;1.00;;;5.50;29.37;102470.72;4975077;28;20665;-73